sensor_id;sensor_type;location;lat;lon;timestamp;P1;durP1;ratioP1;P2;durP2;ratioP2
50671;SDS011;46021;55.882;37.654;2022-10-03T01:09:28;17.63;;;11.65;;
50671;SDS011;46021;55.882;37.654;2022-10-03T01:12:11;14.35;;;10.43;;
50671;SDS011;46021;55.882;37.654;2022-10-03T01:14:55;15.77;;;10.77;;
50671;SDS011;46021;55.882;37.654;2022-10-03T01:17:34;13.57;;;11.07;;
50671;SDS011;46021;55.882;37.654;2022-10-03T01:20:21;15.32;;;11.05;;
50671;SDS011;46021;55.882;37.654;2022-10-03T01:23:14;15.10;;;10.80;;
50671;SDS011;46021;55.882;37.654;2022-10-03T01:25:51;15.60;;;10.73;;
50671;SDS011;46021;55.882;37.654;2022-10-03T01:28:36;15.30;;;11.27;;
50671;SDS011;46021;55.882;37.654;2022-10-03T01:31:26;14.02;;;10.23;;
50671;SDS011;46021;55.882;37.654;2022-10-03T01:33:59;16.88;;;11.65;;
50671;SDS011;46021;55.882;37.654;2022-10-03T01:36:38;14.68;;;11.13;;
50671;SDS011;46021;55.882;37.654;2022-10-03T01:39:12;14.18;;;10.25;;
50671;SDS011;46021;55.882;37.654;2022-10-03T01:41:48;14.07;;;9.95;;
50671;SDS011;46021;55.882;37.654;2022-10-03T01:44:27;14.55;;;10.32;;
50671;SDS011;46021;55.882;37.654;2022-10-03T01:47:07;14.65;;;11.20;;
50671;SDS011;46021;55.882;37.654;2022-10-03T01:49:45;12.25;;;10.27;;
50671;SDS011;46021;55.882;37.654;2022-10-03T01:52:20;13.93;;;10.05;;
50671;SDS011;46021;55.882;37.654;2022-10-03T01:54:55;15.95;;;9.85;;
50671;SDS011;46021;55.882;37.654;2022-10-03T01:57:31;12.80;;;9.98;;
50671;SDS011;46021;55.882;37.654;2022-10-03T02:00:07;13.60;;;9.70;;
50671;SDS011;46021;55.882;37.654;2022-10-03T02:02:41;13.80;;;9.68;;
50671;SDS011;46021;55.882;37.654;2022-10-03T02:05:15;13.35;;;9.02;;
50671;SDS011;46021;55.882;37.654;2022-10-03T02:07:49;12.48;;;8.77;;
50671;SDS011;46021;55.882;37.654;2022-10-03T02:10:24;12.68;;;8.55;;
50671;SDS011;46021;55.882;37.654;2022-10-03T02:13:03;12.63;;;9.45;;
50671;SDS011;46021;55.882;37.654;2022-10-03T02:15:56;12.13;;;9.23;;
50671;SDS011;46021;55.882;37.654;2022-10-03T02:18:35;12.50;;;8.82;;
50671;SDS011;46021;55.882;37.654;2022-10-03T02:21:11;11.13;;;8.48;;
50671;SDS011;46021;55.882;37.654;2022-10-03T02:23:42;11.15;;;8.88;;
50671;SDS011;46021;55.882;37.654;2022-10-03T02:26:19;11.07;;;8.75;;
50671;SDS011;46021;55.882;37.654;2022-10-03T02:29:16;11.13;;;8.45;;
50671;SDS011;46021;55.882;37.654;2022-10-03T02:32:09;10.23;;;7.87;;
50671;SDS011;46021;55.882;37.654;2022-10-03T02:35:20;10.02;;;7.57;;
50671;SDS011;46021;55.882;37.654;2022-10-03T02:40:56;9.70;;;7.45;;
50671;SDS011;46021;55.882;37.654;2022-10-03T02:47:26;14.82;;;8.57;;
50671;SDS011;46021;55.882;37.654;2022-10-03T02:56:36;11.38;;;8.18;;
50671;SDS011;46021;55.882;37.654;2022-10-03T02:59:43;12.02;;;7.60;;
50671;SDS011;46021;55.882;37.654;2022-10-03T03:05:31;14.93;;;9.13;;
50671;SDS011;46021;55.882;37.654;2022-10-03T03:11:06;10.30;;;7.10;;
50671;SDS011;46021;55.882;37.654;2022-10-03T03:16:54;8.90;;;7.05;;
50671;SDS011;46021;55.882;37.654;2022-10-03T03:19:40;9.70;;;6.93;;
50671;SDS011;46021;55.882;37.654;2022-10-03T03:22:28;12.30;;;7.82;;
50671;SDS011;46021;55.882;37.654;2022-10-03T03:25:05;10.68;;;7.20;;
50671;SDS011;46021;55.882;37.654;2022-10-03T03:27:43;8.18;;;5.82;;
50671;SDS011;46021;55.882;37.654;2022-10-03T03:30:23;9.38;;;6.90;;
50671;SDS011;46021;55.882;37.654;2022-10-03T03:33:01;8.82;;;7.25;;
50671;SDS011;46021;55.882;37.654;2022-10-03T03:35:40;8.90;;;6.65;;
50671;SDS011;46021;55.882;37.654;2022-10-03T03:38:21;10.73;;;7.57;;
50671;SDS011;46021;55.882;37.654;2022-10-03T03:40:55;9.05;;;6.63;;
50671;SDS011;46021;55.882;37.654;2022-10-03T03:46:34;7.95;;;6.60;;
50671;SDS011;46021;55.882;37.654;2022-10-03T03:49:19;10.18;;;7.15;;
50671;SDS011;46021;55.882;37.654;2022-10-03T03:51:59;11.32;;;7.53;;
50671;SDS011;46021;55.882;37.654;2022-10-03T03:54:51;10.55;;;8.05;;
50671;SDS011;46021;55.882;37.654;2022-10-03T03:57:37;13.48;;;8.50;;
50671;SDS011;46021;55.882;37.654;2022-10-03T04:00:28;12.57;;;8.48;;
50671;SDS011;46021;55.882;37.654;2022-10-03T04:03:07;10.98;;;8.27;;
50671;SDS011;46021;55.882;37.654;2022-10-03T04:05:56;24.83;;;17.63;;
50671;SDS011;46021;55.882;37.654;2022-10-03T04:11:53;11.02;;;9.07;;
50671;SDS011;46021;55.882;37.654;2022-10-03T04:14:32;13.13;;;9.48;;
50671;SDS011;46021;55.882;37.654;2022-10-03T04:17:18;14.90;;;10.45;;
50671;SDS011;46021;55.882;37.654;2022-10-03T04:20:13;14.30;;;10.32;;
50671;SDS011;46021;55.882;37.654;2022-10-03T04:22:57;12.35;;;9.85;;
50671;SDS011;46021;55.882;37.654;2022-10-03T04:25:49;12.98;;;10.20;;
50671;SDS011;46021;55.882;37.654;2022-10-03T04:28:38;14.75;;;10.23;;
50671;SDS011;46021;55.882;37.654;2022-10-03T04:31:20;13.82;;;10.85;;
50671;SDS011;46021;55.882;37.654;2022-10-03T04:34:06;12.75;;;10.05;;
50671;SDS011;46021;55.882;37.654;2022-10-03T04:39:39;16.77;;;10.20;;
50671;SDS011;46021;55.882;37.654;2022-10-03T04:42:15;22.40;;;11.73;;
50671;SDS011;46021;55.882;37.654;2022-10-03T04:44:59;17.20;;;11.05;;
50671;SDS011;46021;55.882;37.654;2022-10-03T04:47:41;15.73;;;11.20;;
50671;SDS011;46021;55.882;37.654;2022-10-03T04:50:17;13.43;;;10.82;;
50671;SDS011;46021;55.882;37.654;2022-10-03T04:52:55;17.55;;;10.38;;
50671;SDS011;46021;55.882;37.654;2022-10-03T04:55:32;14.30;;;10.95;;
50671;SDS011;46021;55.882;37.654;2022-10-03T04:58:13;15.15;;;10.55;;
50671;SDS011;46021;55.882;37.654;2022-10-03T05:00:48;13.55;;;10.45;;
50671;SDS011;46021;55.882;37.654;2022-10-03T05:03:25;15.50;;;10.23;;
50671;SDS011;46021;55.882;37.654;2022-10-03T05:05:59;15.43;;;10.80;;
50671;SDS011;46021;55.882;37.654;2022-10-03T05:08:34;15.27;;;11.10;;
50671;SDS011;46021;55.882;37.654;2022-10-03T05:11:14;14.15;;;10.30;;
50671;SDS011;46021;55.882;37.654;2022-10-03T05:13:59;13.73;;;11.05;;
50671;SDS011;46021;55.882;37.654;2022-10-03T05:16:36;18.83;;;10.98;;
50671;SDS011;46021;55.882;37.654;2022-10-03T05:19:14;12.18;;;9.88;;
50671;SDS011;46021;55.882;37.654;2022-10-03T05:22:16;14.80;;;10.38;;
50671;SDS011;46021;55.882;37.654;2022-10-03T05:24:53;17.95;;;12.02;;
50671;SDS011;46021;55.882;37.654;2022-10-03T05:27:28;16.40;;;10.13;;
50671;SDS011;46021;55.882;37.654;2022-10-03T05:30:03;12.73;;;9.65;;
50671;SDS011;46021;55.882;37.654;2022-10-03T05:32:36;14.25;;;10.25;;
50671;SDS011;46021;55.882;37.654;2022-10-03T05:35:18;14.77;;;9.35;;
50671;SDS011;46021;55.882;37.654;2022-10-03T05:38:12;14.20;;;8.82;;
50671;SDS011;46021;55.882;37.654;2022-10-03T05:40:59;17.38;;;9.88;;
50671;SDS011;46021;55.882;37.654;2022-10-03T05:43:33;12.52;;;9.30;;
50671;SDS011;46021;55.882;37.654;2022-10-03T05:46:21;13.70;;;8.95;;
50671;SDS011;46021;55.882;37.654;2022-10-03T05:49:07;11.90;;;9.07;;
50671;SDS011;46021;55.882;37.654;2022-10-03T05:51:59;14.65;;;9.27;;
50671;SDS011;46021;55.882;37.654;2022-10-03T05:54:48;13.88;;;8.38;;
50671;SDS011;46021;55.882;37.654;2022-10-03T05:57:32;15.43;;;7.90;;
50671;SDS011;46021;55.882;37.654;2022-10-03T06:00:14;16.20;;;8.68;;
50671;SDS011;46021;55.882;37.654;2022-10-03T06:02:59;12.43;;;8.07;;
50671;SDS011;46021;55.882;37.654;2022-10-03T06:05:43;13.13;;;8.60;;
50671;SDS011;46021;55.882;37.654;2022-10-03T06:08:46;10.27;;;7.70;;
50671;SDS011;46021;55.882;37.654;2022-10-03T06:11:23;14.35;;;7.18;;
50671;SDS011;46021;55.882;37.654;2022-10-03T06:14:11;12.82;;;7.53;;
50671;SDS011;46021;55.882;37.654;2022-10-03T06:16:51;12.75;;;7.35;;
50671;SDS011;46021;55.882;37.654;2022-10-03T06:19:37;9.98;;;6.70;;
50671;SDS011;46021;55.882;37.654;2022-10-03T06:22:25;9.43;;;6.80;;
50671;SDS011;46021;55.882;37.654;2022-10-03T06:28:33;9.93;;;6.45;;
50671;SDS011;46021;55.882;37.654;2022-10-03T06:34:29;13.65;;;7.00;;
50671;SDS011;46021;55.882;37.654;2022-10-03T06:37:38;11.82;;;6.65;;
50671;SDS011;46021;55.882;37.654;2022-10-03T06:40:33;9.75;;;6.07;;
50671;SDS011;46021;55.882;37.654;2022-10-03T06:46:38;13.63;;;5.88;;
50671;SDS011;46021;55.882;37.654;2022-10-03T06:49:41;11.93;;;5.95;;
50671;SDS011;46021;55.882;37.654;2022-10-03T06:55:33;12.88;;;6.00;;
50671;SDS011;46021;55.882;37.654;2022-10-03T06:58:22;9.85;;;5.78;;
50671;SDS011;46021;55.882;37.654;2022-10-03T07:01:23;12.30;;;6.35;;
50671;SDS011;46021;55.882;37.654;2022-10-03T07:07:46;12.10;;;6.10;;
50671;SDS011;46021;55.882;37.654;2022-10-03T07:10:43;11.30;;;5.97;;
50671;SDS011;46021;55.882;37.654;2022-10-03T07:13:39;13.63;;;6.38;;
50671;SDS011;46021;55.882;37.654;2022-10-03T07:19:47;10.88;;;5.70;;
50671;SDS011;46021;55.882;37.654;2022-10-03T07:22:43;12.00;;;6.18;;
50671;SDS011;46021;55.882;37.654;2022-10-03T07:25:38;17.13;;;5.90;;
50671;SDS011;46021;55.882;37.654;2022-10-03T07:31:28;12.40;;;5.75;;
50671;SDS011;46021;55.882;37.654;2022-10-03T07:34:17;13.85;;;5.90;;
50671;SDS011;46021;55.882;37.654;2022-10-03T07:37:19;11.18;;;6.00;;
50671;SDS011;46021;55.882;37.654;2022-10-03T07:43:26;12.25;;;5.35;;
50671;SDS011;46021;55.882;37.654;2022-10-03T07:46:40;6.55;;;5.18;;
50671;SDS011;46021;55.882;37.654;2022-10-03T07:52:46;13.95;;;4.78;;
50671;SDS011;46021;55.882;37.654;2022-10-03T08:01:44;12.18;;;5.30;;
50671;SDS011;46021;55.882;37.654;2022-10-03T08:04:28;14.23;;;4.93;;
50671;SDS011;46021;55.882;37.654;2022-10-03T08:13:34;8.27;;;4.70;;
50671;SDS011;46021;55.882;37.654;2022-10-03T08:16:23;9.15;;;4.82;;
50671;SDS011;46021;55.882;37.654;2022-10-03T08:19:14;10.13;;;5.00;;
50671;SDS011;46021;55.882;37.654;2022-10-03T08:21:57;15.77;;;5.50;;
50671;SDS011;46021;55.882;37.654;2022-10-03T08:24:38;11.43;;;4.70;;
50671;SDS011;46021;55.882;37.654;2022-10-03T08:27:25;11.43;;;5.15;;
50671;SDS011;46021;55.882;37.654;2022-10-03T08:30:20;10.20;;;5.70;;
50671;SDS011;46021;55.882;37.654;2022-10-03T08:32:56;9.05;;;4.72;;
50671;SDS011;46021;55.882;37.654;2022-10-03T08:35:41;14.30;;;4.68;;
50671;SDS011;46021;55.882;37.654;2022-10-03T08:38:47;10.63;;;4.95;;
50671;SDS011;46021;55.882;37.654;2022-10-03T08:56:20;10.75;;;3.80;;
50671;SDS011;46021;55.882;37.654;2022-10-03T09:08:17;8.27;;;4.00;;
50671;SDS011;46021;55.882;37.654;2022-10-03T09:17:02;6.18;;;3.13;;
50671;SDS011;46021;55.882;37.654;2022-10-03T09:19:59;6.50;;;3.50;;
50671;SDS011;46021;55.882;37.654;2022-10-03T09:25:40;6.72;;;3.13;;
50671;SDS011;46021;55.882;37.654;2022-10-03T09:31:37;7.32;;;3.15;;
50671;SDS011;46021;55.882;37.654;2022-10-03T09:34:42;7.63;;;3.10;;
50671;SDS011;46021;55.882;37.654;2022-10-03T09:37:47;10.55;;;3.67;;
50671;SDS011;46021;55.882;37.654;2022-10-03T09:43:56;6.55;;;3.33;;
50671;SDS011;46021;55.882;37.654;2022-10-03T09:46:48;5.90;;;3.17;;
50671;SDS011;46021;55.882;37.654;2022-10-03T09:50:03;6.32;;;3.22;;
50671;SDS011;46021;55.882;37.654;2022-10-03T09:56:18;6.78;;;3.47;;
50671;SDS011;46021;55.882;37.654;2022-10-03T09:59:22;6.05;;;3.05;;
50671;SDS011;46021;55.882;37.654;2022-10-03T10:05:44;6.90;;;3.17;;
50671;SDS011;46021;55.882;37.654;2022-10-03T10:08:34;5.10;;;2.95;;
50671;SDS011;46021;55.882;37.654;2022-10-03T10:11:17;4.78;;;2.80;;
50671;SDS011;46021;55.882;37.654;2022-10-03T10:20:00;7.90;;;3.30;;
50671;SDS011;46021;55.882;37.654;2022-10-03T10:25:43;6.22;;;2.50;;
50671;SDS011;46021;55.882;37.654;2022-10-03T10:28:47;3.50;;;1.98;;
50671;SDS011;46021;55.882;37.654;2022-10-03T10:31:52;3.10;;;1.70;;
50671;SDS011;46021;55.882;37.654;2022-10-03T10:34:58;3.90;;;2.20;;
50671;SDS011;46021;55.882;37.654;2022-10-03T10:37:58;8.45;;;4.13;;
50671;SDS011;46021;55.882;37.654;2022-10-03T11:01:59;4.38;;;1.20;;
50671;SDS011;46021;55.882;37.654;2022-10-03T11:11:11;2.90;;;1.63;;
50671;SDS011;46021;55.882;37.654;2022-10-03T11:17:13;5.32;;;1.98;;
50671;SDS011;46021;55.882;37.654;2022-10-03T11:20:18;5.45;;;1.95;;
50671;SDS011;46021;55.882;37.654;2022-10-03T11:23:26;4.50;;;2.00;;
50671;SDS011;46021;55.882;37.654;2022-10-03T11:26:19;6.63;;;2.05;;
50671;SDS011;46021;55.882;37.654;2022-10-03T11:35:36;3.42;;;1.95;;
50671;SDS011;46021;55.882;37.654;2022-10-03T11:38:19;3.53;;;2.28;;
50671;SDS011;46021;55.882;37.654;2022-10-03T11:40:54;4.97;;;1.90;;
50671;SDS011;46021;55.882;37.654;2022-10-03T11:49:34;4.07;;;1.88;;
50671;SDS011;46021;55.882;37.654;2022-10-03T11:52:18;2.72;;;1.60;;
50671;SDS011;46021;55.882;37.654;2022-10-03T11:55:02;1.77;;;1.30;;
50671;SDS011;46021;55.882;37.654;2022-10-03T11:57:41;2.67;;;1.30;;
50671;SDS011;46021;55.882;37.654;2022-10-03T12:00:13;3.75;;;1.55;;
50671;SDS011;46021;55.882;37.654;2022-10-03T12:03:01;3.60;;;1.73;;
50671;SDS011;46021;55.882;37.654;2022-10-03T12:05:47;29.25;;;13.25;;
50671;SDS011;46021;55.882;37.654;2022-10-03T12:08:38;5.28;;;1.73;;
50671;SDS011;46021;55.882;37.654;2022-10-03T12:11:22;5.43;;;1.25;;
50671;SDS011;46021;55.882;37.654;2022-10-03T12:14:12;2.63;;;1.00;;
50671;SDS011;46021;55.882;37.654;2022-10-03T12:16:55;4.28;;;1.08;;
50671;SDS011;46021;55.882;37.654;2022-10-03T12:19:32;3.35;;;1.10;;
50671;SDS011;46021;55.882;37.654;2022-10-03T12:22:07;1.65;;;0.93;;
50671;SDS011;46021;55.882;37.654;2022-10-03T12:24:43;2.70;;;0.90;;
50671;SDS011;46021;55.882;37.654;2022-10-03T12:27:14;3.42;;;0.90;;
50671;SDS011;46021;55.882;37.654;2022-10-03T12:29:54;0.75;;;0.57;;
50671;SDS011;46021;55.882;37.654;2022-10-03T12:32:29;2.08;;;0.63;;
50671;SDS011;46021;55.882;37.654;2022-10-03T12:35:06;1.23;;;0.60;;
50671;SDS011;46021;55.882;37.654;2022-10-03T12:37:49;1.08;;;0.60;;
50671;SDS011;46021;55.882;37.654;2022-10-03T12:40:23;37.58;;;17.33;;
50671;SDS011;46021;55.882;37.654;2022-10-03T12:43:00;4.97;;;1.83;;
50671;SDS011;46021;55.882;37.654;2022-10-03T12:45:34;4.38;;;1.10;;
50671;SDS011;46021;55.882;37.654;2022-10-03T12:48:12;4.18;;;1.25;;
50671;SDS011;46021;55.882;37.654;2022-10-03T12:51:13;2.05;;;1.00;;
50671;SDS011;46021;55.882;37.654;2022-10-03T12:53:48;1.35;;;0.70;;
50671;SDS011;46021;55.882;37.654;2022-10-03T12:56:27;1.77;;;0.80;;
50671;SDS011;46021;55.882;37.654;2022-10-03T13:02:04;4.32;;;0.70;;
50671;SDS011;46021;55.882;37.654;2022-10-03T13:05:06;1.42;;;0.60;;
50671;SDS011;46021;55.882;37.654;2022-10-03T13:08:10;1.63;;;0.70;;
50671;SDS011;46021;55.882;37.654;2022-10-03T13:10:51;1.77;;;0.60;;
50671;SDS011;46021;55.882;37.654;2022-10-03T13:13:26;1.30;;;0.60;;
50671;SDS011;46021;55.882;37.654;2022-10-03T13:16:04;0.60;;;0.60;;
50671;SDS011;46021;55.882;37.654;2022-10-03T13:18:43;2.92;;;0.73;;
50671;SDS011;46021;55.882;37.654;2022-10-03T13:21:18;8.15;;;1.20;;
50671;SDS011;46021;55.882;37.654;2022-10-03T13:23:52;5.82;;;0.90;;
50671;SDS011;46021;55.882;37.654;2022-10-03T13:26:24;3.10;;;0.70;;
50671;SDS011;46021;55.882;37.654;2022-10-03T13:29:11;1.98;;;0.68;;
50671;SDS011;46021;55.882;37.654;2022-10-03T13:31:57;0.57;;;0.50;;
50671;SDS011;46021;55.882;37.654;2022-10-03T13:37:50;1.80;;;1.00;;
50671;SDS011;46021;55.882;37.654;2022-10-03T13:40:42;1.25;;;0.60;;
50671;SDS011;46021;55.882;37.654;2022-10-03T13:43:14;1.38;;;0.60;;
50671;SDS011;46021;55.882;37.654;2022-10-03T13:45:46;2.50;;;0.70;;
50671;SDS011;46021;55.882;37.654;2022-10-03T13:48:21;1.75;;;0.50;;
50671;SDS011;46021;55.882;37.654;2022-10-03T13:50:52;2.67;;;0.75;;
50671;SDS011;46021;55.882;37.654;2022-10-03T13:53:38;1.55;;;0.70;;
50671;SDS011;46021;55.882;37.654;2022-10-03T13:58:51;2.40;;;0.70;;
50671;SDS011;46021;55.882;37.654;2022-10-03T14:01:26;0.68;;;0.50;;
50671;SDS011;46021;55.882;37.654;2022-10-03T14:04:18;3.63;;;0.70;;
50671;SDS011;46021;55.882;37.654;2022-10-03T14:06:56;1.13;;;0.73;;
50671;SDS011;46021;55.882;37.654;2022-10-03T14:09:35;1.48;;;0.75;;
50671;SDS011;46021;55.882;37.654;2022-10-03T14:12:11;1.25;;;0.60;;
50671;SDS011;46021;55.882;37.654;2022-10-03T14:14:57;1.90;;;0.75;;
50671;SDS011;46021;55.882;37.654;2022-10-03T14:17:40;2.40;;;0.55;;
50671;SDS011;46021;55.882;37.654;2022-10-03T14:20:19;2.38;;;0.90;;
50671;SDS011;46021;55.882;37.654;2022-10-03T14:22:56;1.10;;;0.68;;
50671;SDS011;46021;55.882;37.654;2022-10-03T14:25:33;3.67;;;1.00;;
50671;SDS011;46021;55.882;37.654;2022-10-03T14:28:06;2.60;;;0.90;;
50671;SDS011;46021;55.882;37.654;2022-10-03T14:30:46;1.88;;;0.70;;
50671;SDS011;46021;55.882;37.654;2022-10-03T14:33:20;3.13;;;1.40;;
50671;SDS011;46021;55.882;37.654;2022-10-03T14:35:56;3.20;;;1.77;;
50671;SDS011;46021;55.882;37.654;2022-10-03T14:41:48;2.05;;;0.88;;
50671;SDS011;46021;55.882;37.654;2022-10-03T14:44:35;2.67;;;0.95;;
50671;SDS011;46021;55.882;37.654;2022-10-03T14:47:06;5.82;;;0.90;;
50671;SDS011;46021;55.882;37.654;2022-10-03T14:49:36;1.58;;;1.00;;
50671;SDS011;46021;55.882;37.654;2022-10-03T14:52:06;3.92;;;1.08;;
50671;SDS011;46021;55.882;37.654;2022-10-03T14:54:48;1.60;;;0.73;;
50671;SDS011;46021;55.882;37.654;2022-10-03T14:57:21;2.15;;;0.82;;
50671;SDS011;46021;55.882;37.654;2022-10-03T14:59:55;7.20;;;1.10;;
50671;SDS011;46021;55.882;37.654;2022-10-03T15:02:25;1.97;;;0.90;;
50671;SDS011;46021;55.882;37.654;2022-10-03T15:04:55;4.20;;;0.90;;
50671;SDS011;46021;55.882;37.654;2022-10-03T15:07:33;6.35;;;2.28;;
50671;SDS011;46021;55.882;37.654;2022-10-03T15:10:02;2.78;;;1.00;;
50671;SDS011;46021;55.882;37.654;2022-10-03T15:12:35;4.97;;;1.13;;
50671;SDS011;46021;55.882;37.654;2022-10-03T15:15:07;2.03;;;1.10;;
50671;SDS011;46021;55.882;37.654;2022-10-03T15:17:42;3.50;;;1.20;;
50671;SDS011;46021;55.882;37.654;2022-10-03T15:20:11;2.40;;;1.42;;
50671;SDS011;46021;55.882;37.654;2022-10-03T15:22:41;1.95;;;1.20;;
50671;SDS011;46021;55.882;37.654;2022-10-03T15:25:16;4.95;;;1.30;;
50671;SDS011;46021;55.882;37.654;2022-10-03T15:27:47;1.80;;;1.10;;
50671;SDS011;46021;55.882;37.654;2022-10-03T15:30:20;1.67;;;0.90;;
50671;SDS011;46021;55.882;37.654;2022-10-03T15:32:48;7.45;;;1.98;;
50671;SDS011;46021;55.882;37.654;2022-10-03T15:35:17;2.80;;;1.20;;
50671;SDS011;46021;55.882;37.654;2022-10-03T15:37:49;3.80;;;1.10;;
50671;SDS011;46021;55.882;37.654;2022-10-03T15:42:49;23.27;;;8.13;;
50671;SDS011;46021;55.882;37.654;2022-10-03T15:45:23;3.97;;;1.73;;
50671;SDS011;46021;55.882;37.654;2022-10-03T15:47:54;8.48;;;2.67;;
50671;SDS011;46021;55.882;37.654;2022-10-03T15:50:24;11.15;;;1.92;;
50671;SDS011;46021;55.882;37.654;2022-10-03T15:52:55;4.43;;;1.38;;
50671;SDS011;46021;55.882;37.654;2022-10-03T15:55:28;2.97;;;1.40;;
50671;SDS011;46021;55.882;37.654;2022-10-03T15:58:01;2.33;;;1.15;;
50671;SDS011;46021;55.882;37.654;2022-10-03T16:00:36;4.30;;;1.50;;
50671;SDS011;46021;55.882;37.654;2022-10-03T16:03:07;2.23;;;1.23;;
50671;SDS011;46021;55.882;37.654;2022-10-03T16:05:41;3.65;;;1.30;;
50671;SDS011;46021;55.882;37.654;2022-10-03T16:08:15;4.60;;;1.75;;
50671;SDS011;46021;55.882;37.654;2022-10-03T16:10:50;2.42;;;1.30;;
50671;SDS011;46021;55.882;37.654;2022-10-03T16:13:32;4.55;;;1.10;;
50671;SDS011;46021;55.882;37.654;2022-10-03T16:16:06;3.35;;;1.75;;
50671;SDS011;46021;55.882;37.654;2022-10-03T16:21:44;2.75;;;1.13;;
50671;SDS011;46021;55.882;37.654;2022-10-03T16:24:18;2.40;;;1.30;;
50671;SDS011;46021;55.882;37.654;2022-10-03T16:26:54;7.22;;;1.30;;
50671;SDS011;46021;55.882;37.654;2022-10-03T16:29:26;3.90;;;1.50;;
50671;SDS011;46021;55.882;37.654;2022-10-03T16:31:59;4.13;;;1.17;;
50671;SDS011;46021;55.882;37.654;2022-10-03T16:34:30;4.60;;;1.52;;
50671;SDS011;46021;55.882;37.654;2022-10-03T16:36:59;2.85;;;1.27;;
50671;SDS011;46021;55.882;37.654;2022-10-03T16:39:32;4.30;;;1.38;;
50671;SDS011;46021;55.882;37.654;2022-10-03T16:42:00;3.03;;;1.77;;
50671;SDS011;46021;55.882;37.654;2022-10-03T16:44:38;3.05;;;1.70;;
50671;SDS011;46021;55.882;37.654;2022-10-03T16:47:13;5.40;;;1.33;;
50671;SDS011;46021;55.882;37.654;2022-10-03T16:49:42;3.63;;;1.23;;
50671;SDS011;46021;55.882;37.654;2022-10-03T16:52:30;3.65;;;1.60;;
50671;SDS011;46021;55.882;37.654;2022-10-03T16:55:00;1.67;;;1.08;;
50671;SDS011;46021;55.882;37.654;2022-10-03T16:57:33;3.83;;;1.20;;
50671;SDS011;46021;55.882;37.654;2022-10-03T17:00:13;3.08;;;1.13;;
50671;SDS011;46021;55.882;37.654;2022-10-03T17:02:45;2.75;;;1.13;;
50671;SDS011;46021;55.882;37.654;2022-10-03T17:07:41;4.38;;;2.20;;
50671;SDS011;46021;55.882;37.654;2022-10-03T17:13:10;3.63;;;1.20;;
50671;SDS011;46021;55.882;37.654;2022-10-03T17:15:44;5.15;;;1.00;;
50671;SDS011;46021;55.882;37.654;2022-10-03T17:18:17;2.33;;;0.90;;
50671;SDS011;46021;55.882;37.654;2022-10-03T17:20:47;1.08;;;0.70;;
50671;SDS011;46021;55.882;37.654;2022-10-03T17:23:29;2.50;;;1.00;;
50671;SDS011;46021;55.882;37.654;2022-10-03T17:26:02;1.58;;;0.80;;
50671;SDS011;46021;55.882;37.654;2022-10-03T17:28:36;1.17;;;0.73;;
50671;SDS011;46021;55.882;37.654;2022-10-03T17:31:13;1.60;;;0.80;;
50671;SDS011;46021;55.882;37.654;2022-10-03T17:33:49;2.83;;;0.80;;
50671;SDS011;46021;55.882;37.654;2022-10-03T17:36:41;1.60;;;0.82;;
50671;SDS011;46021;55.882;37.654;2022-10-03T17:39:38;3.17;;;1.30;;
50671;SDS011;46021;55.882;37.654;2022-10-03T17:42:23;7.50;;;1.65;;
50671;SDS011;46021;55.882;37.654;2022-10-03T17:47:33;1.23;;;0.73;;
50671;SDS011;46021;55.882;37.654;2022-10-03T17:50:14;1.48;;;0.95;;
50671;SDS011;46021;55.882;37.654;2022-10-03T17:52:45;4.28;;;0.90;;
50671;SDS011;46021;55.882;37.654;2022-10-03T17:55:15;2.67;;;1.10;;
50671;SDS011;46021;55.882;37.654;2022-10-03T17:57:45;2.58;;;1.30;;
50671;SDS011;46021;55.882;37.654;2022-10-03T18:00:17;3.95;;;1.08;;
50671;SDS011;46021;55.882;37.654;2022-10-03T18:02:48;1.75;;;0.90;;
50671;SDS011;46021;55.882;37.654;2022-10-03T18:05:21;2.65;;;1.30;;
50671;SDS011;46021;55.882;37.654;2022-10-03T18:07:52;2.00;;;1.30;;
50671;SDS011;46021;55.882;37.654;2022-10-03T18:10:21;4.18;;;1.38;;
50671;SDS011;46021;55.882;37.654;2022-10-03T18:12:52;6.68;;;2.05;;
50671;SDS011;46021;55.882;37.654;2022-10-03T18:15:31;5.90;;;1.77;;
50671;SDS011;46021;55.882;37.654;2022-10-03T18:18:10;2.72;;;1.60;;
50671;SDS011;46021;55.882;37.654;2022-10-03T18:21:01;2.75;;;1.50;;
50671;SDS011;46021;55.882;37.654;2022-10-03T18:23:32;3.92;;;1.90;;
50671;SDS011;46021;55.882;37.654;2022-10-03T18:26:11;5.00;;;3.25;;
50671;SDS011;46021;55.882;37.654;2022-10-03T18:28:48;2.90;;;2.03;;
50671;SDS011;46021;55.882;37.654;2022-10-03T18:31:22;3.47;;;2.00;;
50671;SDS011;46021;55.882;37.654;2022-10-03T18:33:54;3.28;;;1.60;;
50671;SDS011;46021;55.882;37.654;2022-10-03T18:36:24;1.90;;;1.30;;
50671;SDS011;46021;55.882;37.654;2022-10-03T18:38:54;3.17;;;1.75;;
50671;SDS011;46021;55.882;37.654;2022-10-03T18:41:24;2.60;;;1.40;;
50671;SDS011;46021;55.882;37.654;2022-10-03T18:43:51;4.85;;;1.75;;
50671;SDS011;46021;55.882;37.654;2022-10-03T18:46:24;3.08;;;1.67;;
50671;SDS011;46021;55.882;37.654;2022-10-03T18:48:56;2.40;;;1.38;;
50671;SDS011;46021;55.882;37.654;2022-10-03T18:51:30;4.15;;;1.85;;
50671;SDS011;46021;55.882;37.654;2022-10-03T18:54:02;2.92;;;1.35;;
50671;SDS011;46021;55.882;37.654;2022-10-03T18:56:38;12.15;;;5.07;;
50671;SDS011;46021;55.882;37.654;2022-10-03T18:59:08;10.82;;;4.40;;
50671;SDS011;46021;55.882;37.654;2022-10-03T19:01:44;3.55;;;2.00;;
50671;SDS011;46021;55.882;37.654;2022-10-03T19:04:30;3.95;;;1.85;;
50671;SDS011;46021;55.882;37.654;2022-10-03T19:07:01;2.72;;;1.58;;
50671;SDS011;46021;55.882;37.654;2022-10-03T19:09:40;4.60;;;1.80;;
50671;SDS011;46021;55.882;37.654;2022-10-03T19:12:14;5.30;;;1.92;;
50671;SDS011;46021;55.882;37.654;2022-10-03T19:14:49;5.43;;;2.10;;
50671;SDS011;46021;55.882;37.654;2022-10-03T19:17:31;4.15;;;1.70;;
50671;SDS011;46021;55.882;37.654;2022-10-03T19:20:11;6.25;;;1.73;;
50671;SDS011;46021;55.882;37.654;2022-10-03T19:22:52;3.33;;;1.63;;
50671;SDS011;46021;55.882;37.654;2022-10-03T19:25:23;4.22;;;1.80;;
50671;SDS011;46021;55.882;37.654;2022-10-03T19:27:53;3.45;;;1.60;;
50671;SDS011;46021;55.882;37.654;2022-10-03T19:30:24;4.07;;;2.20;;
50671;SDS011;46021;55.882;37.654;2022-10-03T19:32:56;3.72;;;1.90;;
50671;SDS011;46021;55.882;37.654;2022-10-03T19:35:25;5.15;;;1.90;;
50671;SDS011;46021;55.882;37.654;2022-10-03T19:37:54;5.53;;;1.67;;
50671;SDS011;46021;55.882;37.654;2022-10-03T19:40:29;5.10;;;1.45;;
50671;SDS011;46021;55.882;37.654;2022-10-03T19:43:16;3.20;;;1.60;;
50671;SDS011;46021;55.882;37.654;2022-10-03T19:46:05;3.47;;;1.45;;
50671;SDS011;46021;55.882;37.654;2022-10-03T19:48:39;1.73;;;1.30;;
50671;SDS011;46021;55.882;37.654;2022-10-03T19:51:13;2.95;;;1.20;;
50671;SDS011;46021;55.882;37.654;2022-10-03T19:53:42;2.42;;;1.20;;
50671;SDS011;46021;55.882;37.654;2022-10-03T19:56:12;5.25;;;1.13;;
50671;SDS011;46021;55.882;37.654;2022-10-03T19:58:43;2.83;;;1.20;;
50671;SDS011;46021;55.882;37.654;2022-10-03T20:01:11;2.85;;;1.60;;
50671;SDS011;46021;55.882;37.654;2022-10-03T20:03:38;2.47;;;1.47;;
50671;SDS011;46021;55.882;37.654;2022-10-03T20:06:13;3.00;;;1.60;;
50671;SDS011;46021;55.882;37.654;2022-10-03T20:08:43;2.15;;;1.17;;
50671;SDS011;46021;55.882;37.654;2022-10-03T20:11:16;3.97;;;1.60;;
50671;SDS011;46021;55.882;37.654;2022-10-03T20:13:50;3.22;;;2.05;;